< < Back
Terminal Aerodrome Forecast


Current Version              Previous Versions:   1  2  3  4  5  6  7  8  9  

Terminal Aerodrome Forecast

007
FTUS42 KJAX 221100
TAFSSI
TAF
KSSI 221137Z 2212/2312 22005KT P6SM SKC
     FM221300 26006KT P6SM SCT250
     FM221700 18007KT P6SM FEW035 BKN250
     FM222300 16006KT P6SM VCTS SCT035CB OVC250
     FM230400 07006KT P6SM VCTS BKN030CB OVC250
      TEMPO 2304/2306 4SM TSRA OVC025CB=

Latest METAR

914
SAUS70 KWBC 221600 RRG
MTRSSI
METAR KSSI 221553Z AUTO 23007KT 10SM CLR 29/19 A3003 RMK AO2 SLP167
T02890194


USA.gov is the U.S. government's official web portal to all federal, state and local government web resources and services.